sensor_id;sensor_type;location;lat;lon;timestamp;temperature;humidity
8850;DHT22;5638;50.860;4.698;2022-11-20T00:01:22;6.60;99.90
8850;DHT22;5638;50.860;4.698;2022-11-20T00:03:52;6.60;99.90
8850;DHT22;5638;50.860;4.698;2022-11-20T00:06:20;6.60;99.90
8850;DHT22;5638;50.860;4.698;2022-11-20T00:08:47;6.60;99.90
8850;DHT22;5638;50.860;4.698;2022-11-20T00:11:15;6.60;99.90
8850;DHT22;5638;50.860;4.698;2022-11-20T00:13:48;6.60;99.90
8850;DHT22;5638;50.860;4.698;2022-11-20T00:16:19;6.60;99.90
8850;DHT22;5638;50.860;4.698;2022-11-20T00:18:46;6.60;99.90
8850;DHT22;5638;50.860;4.698;2022-11-20T00:21:15;6.50;99.90
8850;DHT22;5638;50.860;4.698;2022-11-20T00:23:43;6.50;99.90
8850;DHT22;5638;50.860;4.698;2022-11-20T00:26:11;6.50;99.90
8850;DHT22;5638;50.860;4.698;2022-11-20T00:28:39;6.50;99.90
8850;DHT22;5638;50.860;4.698;2022-11-20T00:31:08;6.50;99.90
8850;DHT22;5638;50.860;4.698;2022-11-20T00:33:36;6.50;99.90
8850;DHT22;5638;50.860;4.698;2022-11-20T00:36:08;6.50;99.90
8850;DHT22;5638;50.860;4.698;2022-11-20T00:38:36;6.50;99.90
8850;DHT22;5638;50.860;4.698;2022-11-20T00:41:05;6.50;99.90
8850;DHT22;5638;50.860;4.698;2022-11-20T00:43:36;6.60;99.90
8850;DHT22;5638;50.860;4.698;2022-11-20T00:46:09;6.50;99.90
8850;DHT22;5638;50.860;4.698;2022-11-20T00:48:38;6.50;99.90
8850;DHT22;5638;50.860;4.698;2022-11-20T00:51:04;6.40;99.90
8850;DHT22;5638;50.860;4.698;2022-11-20T00:53:30;6.30;99.90
8850;DHT22;5638;50.860;4.698;2022-11-20T00:55:58;6.30;99.90
8850;DHT22;5638;50.860;4.698;2022-11-20T00:58:29;6.30;99.90
8850;DHT22;5638;50.860;4.698;2022-11-20T01:03:37;6.40;99.90
8850;DHT22;5638;50.860;4.698;2022-11-20T01:06:14;6.40;99.90
8850;DHT22;5638;50.860;4.698;2022-11-20T01:08:42;6.40;99.90
8850;DHT22;5638;50.860;4.698;2022-11-20T01:11:12;6.50;99.90
8850;DHT22;5638;50.860;4.698;2022-11-20T01:13:40;6.60;99.90
8850;DHT22;5638;50.860;4.698;2022-11-20T01:16:08;6.60;99.90
8850;DHT22;5638;50.860;4.698;2022-11-20T01:18:39;6.60;99.90
8850;DHT22;5638;50.860;4.698;2022-11-20T01:21:12;6.60;99.90
8850;DHT22;5638;50.860;4.698;2022-11-20T01:23:42;6.50;99.90
8850;DHT22;5638;50.860;4.698;2022-11-20T01:26:12;6.50;99.90
8850;DHT22;5638;50.860;4.698;2022-11-20T01:28:40;6.50;99.90
8850;DHT22;5638;50.860;4.698;2022-11-20T01:31:16;6.50;99.90
8850;DHT22;5638;50.860;4.698;2022-11-20T01:33:45;6.50;99.90
8850;DHT22;5638;50.860;4.698;2022-11-20T01:36:13;6.50;99.90
8850;DHT22;5638;50.860;4.698;2022-11-20T01:38:40;6.50;99.90
8850;DHT22;5638;50.860;4.698;2022-11-20T01:41:07;6.50;99.90
8850;DHT22;5638;50.860;4.698;2022-11-20T01:43:35;6.40;99.90
8850;DHT22;5638;50.860;4.698;2022-11-20T01:46:14;6.30;99.90
8850;DHT22;5638;50.860;4.698;2022-11-20T01:54:03;6.30;99.90
8850;DHT22;5638;50.860;4.698;2022-11-20T01:56:36;6.30;99.90
8850;DHT22;5638;50.860;4.698;2022-11-20T01:59:05;6.30;99.90
8850;DHT22;5638;50.860;4.698;2022-11-20T02:01:34;6.40;99.90
8850;DHT22;5638;50.860;4.698;2022-11-20T02:04:00;6.40;99.90
8850;DHT22;5638;50.860;4.698;2022-11-20T02:06:30;6.40;99.90
8850;DHT22;5638;50.860;4.698;2022-11-20T02:09:01;6.30;99.90
8850;DHT22;5638;50.860;4.698;2022-11-20T02:11:26;6.20;99.90
8850;DHT22;5638;50.860;4.698;2022-11-20T02:13:53;6.20;99.90
8850;DHT22;5638;50.860;4.698;2022-11-20T02:16:30;6.20;99.90
8850;DHT22;5638;50.860;4.698;2022-11-20T02:19:02;6.20;99.90
8850;DHT22;5638;50.860;4.698;2022-11-20T02:21:40;6.30;99.90
8850;DHT22;5638;50.860;4.698;2022-11-20T02:24:17;6.30;99.90
8850;DHT22;5638;50.860;4.698;2022-11-20T02:27:00;6.30;99.90
8850;DHT22;5638;50.860;4.698;2022-11-20T02:29:41;6.30;99.90
8850;DHT22;5638;50.860;4.698;2022-11-20T02:34:53;6.30;99.90
8850;DHT22;5638;50.860;4.698;2022-11-20T02:37:20;6.30;99.90
8850;DHT22;5638;50.860;4.698;2022-11-20T02:39:50;6.40;99.90
8850;DHT22;5638;50.860;4.698;2022-11-20T02:42:17;6.40;99.90
8850;DHT22;5638;50.860;4.698;2022-11-20T02:44:44;6.30;99.90
8850;DHT22;5638;50.860;4.698;2022-11-20T02:47:10;6.30;99.90
8850;DHT22;5638;50.860;4.698;2022-11-20T02:49:36;6.30;99.90
8850;DHT22;5638;50.860;4.698;2022-11-20T02:52:02;6.20;99.90
8850;DHT22;5638;50.860;4.698;2022-11-20T02:54:27;6.20;99.90
8850;DHT22;5638;50.860;4.698;2022-11-20T02:56:53;6.20;99.90
8850;DHT22;5638;50.860;4.698;2022-11-20T02:59:19;6.30;99.90
8850;DHT22;5638;50.860;4.698;2022-11-20T03:01:45;6.30;99.90
8850;DHT22;5638;50.860;4.698;2022-11-20T03:04:11;6.30;99.90
8850;DHT22;5638;50.860;4.698;2022-11-20T03:06:37;6.30;99.90
8850;DHT22;5638;50.860;4.698;2022-11-20T03:09:02;6.30;99.90
8850;DHT22;5638;50.860;4.698;2022-11-20T03:11:29;6.20;99.90
8850;DHT22;5638;50.860;4.698;2022-11-20T03:13:54;6.20;99.90
8850;DHT22;5638;50.860;4.698;2022-11-20T03:16:21;6.10;99.90
8850;DHT22;5638;50.860;4.698;2022-11-20T03:18:49;6.10;99.90
8850;DHT22;5638;50.860;4.698;2022-11-20T03:21:15;6.10;99.90
8850;DHT22;5638;50.860;4.698;2022-11-20T03:23:42;6.10;99.90
8850;DHT22;5638;50.860;4.698;2022-11-20T03:26:17;6.20;99.90
8850;DHT22;5638;50.860;4.698;2022-11-20T03:28:53;6.20;99.90
8850;DHT22;5638;50.860;4.698;2022-11-20T03:31:33;6.20;99.90
8850;DHT22;5638;50.860;4.698;2022-11-20T03:34:02;6.10;99.90
8850;DHT22;5638;50.860;4.698;2022-11-20T03:36:29;6.10;99.90
8850;DHT22;5638;50.860;4.698;2022-11-20T03:38:56;6.10;99.90
8850;DHT22;5638;50.860;4.698;2022-11-20T03:41:27;6.10;99.90
8850;DHT22;5638;50.860;4.698;2022-11-20T03:44:00;6.00;99.90
8850;DHT22;5638;50.860;4.698;2022-11-20T03:46:29;6.10;99.90
8850;DHT22;5638;50.860;4.698;2022-11-20T03:48:56;6.10;99.90
8850;DHT22;5638;50.860;4.698;2022-11-20T03:51:27;6.00;99.90
8850;DHT22;5638;50.860;4.698;2022-11-20T03:53:57;6.00;99.90
8850;DHT22;5638;50.860;4.698;2022-11-20T03:56:29;6.00;99.90
8850;DHT22;5638;50.860;4.698;2022-11-20T03:58:56;6.00;99.90
8850;DHT22;5638;50.860;4.698;2022-11-20T04:01:25;6.00;99.90
8850;DHT22;5638;50.860;4.698;2022-11-20T04:03:54;6.10;99.90
8850;DHT22;5638;50.860;4.698;2022-11-20T04:06:23;6.10;99.90
8850;DHT22;5638;50.860;4.698;2022-11-20T04:08:55;6.10;99.90
8850;DHT22;5638;50.860;4.698;2022-11-20T04:11:24;6.00;99.90
8850;DHT22;5638;50.860;4.698;2022-11-20T04:14:17;6.00;99.90
8850;DHT22;5638;50.860;4.698;2022-11-20T04:16:43;6.00;99.90
8850;DHT22;5638;50.860;4.698;2022-11-20T04:19:14;6.00;99.90
8850;DHT22;5638;50.860;4.698;2022-11-20T04:21:42;5.90;99.90
8850;DHT22;5638;50.860;4.698;2022-11-20T04:24:09;6.00;99.90
8850;DHT22;5638;50.860;4.698;2022-11-20T04:26:38;6.00;99.90
8850;DHT22;5638;50.860;4.698;2022-11-20T04:29:04;6.10;99.90
8850;DHT22;5638;50.860;4.698;2022-11-20T04:31:32;6.10;99.90
8850;DHT22;5638;50.860;4.698;2022-11-20T04:34:05;6.10;99.90
8850;DHT22;5638;50.860;4.698;2022-11-20T04:36:32;6.10;99.90
8850;DHT22;5638;50.860;4.698;2022-11-20T04:39:02;6.10;99.90
8850;DHT22;5638;50.860;4.698;2022-11-20T04:41:32;6.00;99.90
8850;DHT22;5638;50.860;4.698;2022-11-20T04:44:01;6.00;99.90
8850;DHT22;5638;50.860;4.698;2022-11-20T04:46:30;6.00;99.90
8850;DHT22;5638;50.860;4.698;2022-11-20T04:48:58;6.00;99.90
8850;DHT22;5638;50.860;4.698;2022-11-20T04:51:25;6.00;99.90
8850;DHT22;5638;50.860;4.698;2022-11-20T04:53:51;6.10;99.90
8850;DHT22;5638;50.860;4.698;2022-11-20T04:56:17;6.10;99.90
8850;DHT22;5638;50.860;4.698;2022-11-20T04:58:43;6.20;99.90
8850;DHT22;5638;50.860;4.698;2022-11-20T05:01:15;6.20;99.90
8850;DHT22;5638;50.860;4.698;2022-11-20T05:03:46;6.20;99.90
8850;DHT22;5638;50.860;4.698;2022-11-20T05:06:13;6.20;99.90
8850;DHT22;5638;50.860;4.698;2022-11-20T05:08:41;6.20;99.90
8850;DHT22;5638;50.860;4.698;2022-11-20T05:11:13;6.20;99.90
8850;DHT22;5638;50.860;4.698;2022-11-20T05:13:41;6.20;99.90
8850;DHT22;5638;50.860;4.698;2022-11-20T05:16:18;6.20;99.90
8850;DHT22;5638;50.860;4.698;2022-11-20T05:18:46;6.20;99.90
8850;DHT22;5638;50.860;4.698;2022-11-20T05:21:13;6.20;99.90
8850;DHT22;5638;50.860;4.698;2022-11-20T05:23:40;6.20;99.90
8850;DHT22;5638;50.860;4.698;2022-11-20T05:26:08;6.10;99.90
8850;DHT22;5638;50.860;4.698;2022-11-20T05:28:39;6.10;99.90
8850;DHT22;5638;50.860;4.698;2022-11-20T05:31:07;6.10;99.90
8850;DHT22;5638;50.860;4.698;2022-11-20T05:33:36;6.10;99.90
8850;DHT22;5638;50.860;4.698;2022-11-20T05:36:04;6.10;99.90
8850;DHT22;5638;50.860;4.698;2022-11-20T05:38:31;6.20;99.90
8850;DHT22;5638;50.860;4.698;2022-11-20T05:43:35;6.30;99.90
8850;DHT22;5638;50.860;4.698;2022-11-20T05:46:03;6.30;99.90
8850;DHT22;5638;50.860;4.698;2022-11-20T05:48:30;6.30;99.90
8850;DHT22;5638;50.860;4.698;2022-11-20T05:50:58;6.20;99.90
8850;DHT22;5638;50.860;4.698;2022-11-20T05:53:25;6.20;99.90
8850;DHT22;5638;50.860;4.698;2022-11-20T05:56:01;6.20;99.90
8850;DHT22;5638;50.860;4.698;2022-11-20T05:58:32;6.20;99.90
8850;DHT22;5638;50.860;4.698;2022-11-20T06:01:08;6.20;99.90
8850;DHT22;5638;50.860;4.698;2022-11-20T06:03:37;6.10;99.90
8850;DHT22;5638;50.860;4.698;2022-11-20T06:06:04;6.10;99.90
8850;DHT22;5638;50.860;4.698;2022-11-20T06:08:32;6.10;99.90
8850;DHT22;5638;50.860;4.698;2022-11-20T06:10:58;6.10;99.90
8850;DHT22;5638;50.860;4.698;2022-11-20T06:13:28;6.10;99.90
8850;DHT22;5638;50.860;4.698;2022-11-20T06:15:54;6.00;99.90
8850;DHT22;5638;50.860;4.698;2022-11-20T06:18:20;6.00;99.90
8850;DHT22;5638;50.860;4.698;2022-11-20T06:20:46;6.00;99.90
8850;DHT22;5638;50.860;4.698;2022-11-20T06:23:12;6.10;99.90
8850;DHT22;5638;50.860;4.698;2022-11-20T06:25:40;6.00;99.90
8850;DHT22;5638;50.860;4.698;2022-11-20T06:28:07;6.00;99.90
8850;DHT22;5638;50.860;4.698;2022-11-20T06:30:34;6.10;99.90
8850;DHT22;5638;50.860;4.698;2022-11-20T06:33:01;6.10;99.90
8850;DHT22;5638;50.860;4.698;2022-11-20T06:35:27;6.10;99.90
8850;DHT22;5638;50.860;4.698;2022-11-20T06:37:53;6.00;99.90
8850;DHT22;5638;50.860;4.698;2022-11-20T06:40:18;6.00;99.90
8850;DHT22;5638;50.860;4.698;2022-11-20T06:42:44;6.00;99.90
8850;DHT22;5638;50.860;4.698;2022-11-20T06:45:10;6.00;99.90
8850;DHT22;5638;50.860;4.698;2022-11-20T06:47:36;5.90;99.90
8850;DHT22;5638;50.860;4.698;2022-11-20T06:50:02;5.90;99.90
8850;DHT22;5638;50.860;4.698;2022-11-20T06:52:28;5.90;99.90
8850;DHT22;5638;50.860;4.698;2022-11-20T06:54:54;6.00;99.90
8850;DHT22;5638;50.860;4.698;2022-11-20T06:57:20;6.00;99.90
8850;DHT22;5638;50.860;4.698;2022-11-20T06:59:45;6.00;99.90
8850;DHT22;5638;50.860;4.698;2022-11-20T07:02:12;6.00;99.90
8850;DHT22;5638;50.860;4.698;2022-11-20T07:04:38;6.00;99.90
8850;DHT22;5638;50.860;4.698;2022-11-20T07:07:04;6.00;99.90
8850;DHT22;5638;50.860;4.698;2022-11-20T07:09:32;6.00;99.90
8850;DHT22;5638;50.860;4.698;2022-11-20T07:11:59;6.00;99.90
8850;DHT22;5638;50.860;4.698;2022-11-20T07:14:24;6.10;99.90
8850;DHT22;5638;50.860;4.698;2022-11-20T07:16:50;6.10;99.90
8850;DHT22;5638;50.860;4.698;2022-11-20T07:19:16;6.20;99.90
8850;DHT22;5638;50.860;4.698;2022-11-20T07:21:42;6.20;99.90
8850;DHT22;5638;50.860;4.698;2022-11-20T07:24:08;6.10;99.90
8850;DHT22;5638;50.860;4.698;2022-11-20T07:26:34;6.10;99.90
8850;DHT22;5638;50.860;4.698;2022-11-20T07:28:59;6.10;99.90
8850;DHT22;5638;50.860;4.698;2022-11-20T07:31:25;6.20;99.90
8850;DHT22;5638;50.860;4.698;2022-11-20T07:33:51;6.10;99.90
8850;DHT22;5638;50.860;4.698;2022-11-20T07:36:17;6.10;99.90
8850;DHT22;5638;50.860;4.698;2022-11-20T07:38:43;6.20;99.90
8850;DHT22;5638;50.860;4.698;2022-11-20T07:41:08;6.20;99.90
8850;DHT22;5638;50.860;4.698;2022-11-20T07:43:34;6.10;99.90
8850;DHT22;5638;50.860;4.698;2022-11-20T07:46:00;6.20;99.90
8850;DHT22;5638;50.860;4.698;2022-11-20T07:48:26;6.20;99.90
8850;DHT22;5638;50.860;4.698;2022-11-20T07:50:58;6.30;99.90
8850;DHT22;5638;50.860;4.698;2022-11-20T07:53:24;6.30;99.90
8850;DHT22;5638;50.860;4.698;2022-11-20T07:55:50;6.40;99.90
8850;DHT22;5638;50.860;4.698;2022-11-20T07:58:20;6.30;99.90
8850;DHT22;5638;50.860;4.698;2022-11-20T08:00:46;6.40;99.90
8850;DHT22;5638;50.860;4.698;2022-11-20T08:03:12;6.40;99.90
8850;DHT22;5638;50.860;4.698;2022-11-20T08:05:38;6.40;99.90
8850;DHT22;5638;50.860;4.698;2022-11-20T08:08:04;6.40;99.90
8850;DHT22;5638;50.860;4.698;2022-11-20T08:10:30;6.40;99.90
8850;DHT22;5638;50.860;4.698;2022-11-20T08:12:56;6.40;99.90
8850;DHT22;5638;50.860;4.698;2022-11-20T08:15:40;6.40;99.90
8850;DHT22;5638;50.860;4.698;2022-11-20T08:18:09;6.50;99.90
8850;DHT22;5638;50.860;4.698;2022-11-20T08:20:37;6.50;99.90
8850;DHT22;5638;50.860;4.698;2022-11-20T08:23:07;6.50;99.90
8850;DHT22;5638;50.860;4.698;2022-11-20T08:25:34;6.60;99.90
8850;DHT22;5638;50.860;4.698;2022-11-20T08:28:03;6.60;99.90
8850;DHT22;5638;50.860;4.698;2022-11-20T08:30:32;6.60;99.90
8850;DHT22;5638;50.860;4.698;2022-11-20T08:33:16;6.60;99.90
8850;DHT22;5638;50.860;4.698;2022-11-20T08:35:42;6.60;99.90
8850;DHT22;5638;50.860;4.698;2022-11-20T08:38:09;6.70;99.90
8850;DHT22;5638;50.860;4.698;2022-11-20T08:40:35;6.70;99.90
8850;DHT22;5638;50.860;4.698;2022-11-20T08:43:01;6.70;99.90
8850;DHT22;5638;50.860;4.698;2022-11-20T08:45:27;6.70;99.90
8850;DHT22;5638;50.860;4.698;2022-11-20T08:47:53;6.70;99.90
8850;DHT22;5638;50.860;4.698;2022-11-20T08:50:19;6.80;99.90
8850;DHT22;5638;50.860;4.698;2022-11-20T08:52:45;6.90;99.90
8850;DHT22;5638;50.860;4.698;2022-11-20T08:55:11;7.00;99.90
8850;DHT22;5638;50.860;4.698;2022-11-20T08:57:37;7.00;99.90
8850;DHT22;5638;50.860;4.698;2022-11-20T09:00:06;6.90;99.90
8850;DHT22;5638;50.860;4.698;2022-11-20T09:02:33;6.90;99.90
8850;DHT22;5638;50.860;4.698;2022-11-20T09:04:59;7.00;99.90
8850;DHT22;5638;50.860;4.698;2022-11-20T09:07:28;7.10;99.90
8850;DHT22;5638;50.860;4.698;2022-11-20T09:09:54;7.00;99.90
8850;DHT22;5638;50.860;4.698;2022-11-20T09:12:20;7.10;99.90
8850;DHT22;5638;50.860;4.698;2022-11-20T09:14:46;7.20;99.90
8850;DHT22;5638;50.860;4.698;2022-11-20T09:17:11;7.20;99.90
8850;DHT22;5638;50.860;4.698;2022-11-20T09:19:40;7.20;99.90
8850;DHT22;5638;50.860;4.698;2022-11-20T09:22:06;7.10;99.90
8850;DHT22;5638;50.860;4.698;2022-11-20T09:24:32;7.10;99.90
8850;DHT22;5638;50.860;4.698;2022-11-20T09:26:58;7.10;99.90
8850;DHT22;5638;50.860;4.698;2022-11-20T09:29:26;7.20;99.90
8850;DHT22;5638;50.860;4.698;2022-11-20T09:31:52;7.20;99.90
8850;DHT22;5638;50.860;4.698;2022-11-20T09:34:17;7.30;99.90
8850;DHT22;5638;50.860;4.698;2022-11-20T09:36:43;7.30;99.90
8850;DHT22;5638;50.860;4.698;2022-11-20T09:39:10;7.30;99.90
8850;DHT22;5638;50.860;4.698;2022-11-20T09:44:45;7.50;99.90
8850;DHT22;5638;50.860;4.698;2022-11-20T09:50:36;7.50;99.90
8850;DHT22;5638;50.860;4.698;2022-11-20T09:56:02;7.70;99.90
8850;DHT22;5638;50.860;4.698;2022-11-20T09:58:45;7.70;99.90
8850;DHT22;5638;50.860;4.698;2022-11-20T10:01:20;7.80;99.90
8850;DHT22;5638;50.860;4.698;2022-11-20T10:09:53;7.90;99.90
8850;DHT22;5638;50.860;4.698;2022-11-20T10:21:27;8.10;99.90
8850;DHT22;5638;50.860;4.698;2022-11-20T10:26:57;8.20;99.90
8850;DHT22;5638;50.860;4.698;2022-11-20T10:29:49;8.10;99.90
8850;DHT22;5638;50.860;4.698;2022-11-20T10:32:43;8.20;99.90
8850;DHT22;5638;50.860;4.698;2022-11-20T10:35:18;8.30;99.90
8850;DHT22;5638;50.860;4.698;2022-11-20T10:38:03;8.30;99.90
8850;DHT22;5638;50.860;4.698;2022-11-20T10:40:38;8.40;99.90
8850;DHT22;5638;50.860;4.698;2022-11-20T10:43:10;8.40;99.90
8850;DHT22;5638;50.860;4.698;2022-11-20T10:46:01;8.50;99.90
8850;DHT22;5638;50.860;4.698;2022-11-20T10:48:34;8.60;99.90
8850;DHT22;5638;50.860;4.698;2022-11-20T10:56:46;8.70;99.90
8850;DHT22;5638;50.860;4.698;2022-11-20T11:02:20;8.90;99.90
8850;DHT22;5638;50.860;4.698;2022-11-20T11:04:52;8.90;99.90
8850;DHT22;5638;50.860;4.698;2022-11-20T11:07:35;9.00;99.90
8850;DHT22;5638;50.860;4.698;2022-11-20T11:10:24;9.20;99.90
8850;DHT22;5638;50.860;4.698;2022-11-20T11:12:58;9.30;99.90
8850;DHT22;5638;50.860;4.698;2022-11-20T11:17:55;9.40;99.90
8850;DHT22;5638;50.860;4.698;2022-11-20T11:20:25;9.30;99.90
8850;DHT22;5638;50.860;4.698;2022-11-20T11:22:53;9.40;99.90
8850;DHT22;5638;50.860;4.698;2022-11-20T11:25:34;9.40;99.90
8850;DHT22;5638;50.860;4.698;2022-11-20T11:28:19;9.40;99.90
8850;DHT22;5638;50.860;4.698;2022-11-20T11:30:52;9.50;99.90
8850;DHT22;5638;50.860;4.698;2022-11-20T11:33:28;9.50;99.90
8850;DHT22;5638;50.860;4.698;2022-11-20T11:36:01;9.50;99.90
8850;DHT22;5638;50.860;4.698;2022-11-20T11:38:38;9.50;99.90
8850;DHT22;5638;50.860;4.698;2022-11-20T11:41:25;9.40;99.90
8850;DHT22;5638;50.860;4.698;2022-11-20T11:44:33;9.50;99.90
8850;DHT22;5638;50.860;4.698;2022-11-20T11:47:46;9.50;99.90
8850;DHT22;5638;50.860;4.698;2022-11-20T11:50:26;9.50;99.90
8850;DHT22;5638;50.860;4.698;2022-11-20T11:55:48;9.40;99.90
8850;DHT22;5638;50.860;4.698;2022-11-20T12:01:08;9.50;99.90
8850;DHT22;5638;50.860;4.698;2022-11-20T12:04:00;9.50;99.90
8850;DHT22;5638;50.860;4.698;2022-11-20T12:06:31;9.60;99.90
8850;DHT22;5638;50.860;4.698;2022-11-20T12:09:03;9.60;99.90
8850;DHT22;5638;50.860;4.698;2022-11-20T12:16:49;9.90;99.90
8850;DHT22;5638;50.860;4.698;2022-11-20T12:19:18;9.70;99.90
8850;DHT22;5638;50.860;4.698;2022-11-20T12:30:21;9.40;99.90
8850;DHT22;5638;50.860;4.698;2022-11-20T12:59:46;8.90;99.90
8850;DHT22;5638;50.860;4.698;2022-11-20T13:05:17;8.80;99.90
8850;DHT22;5638;50.860;4.698;2022-11-20T13:07:45;8.80;99.90
8850;DHT22;5638;50.860;4.698;2022-11-20T13:13:02;8.80;99.90
8850;DHT22;5638;50.860;4.698;2022-11-20T13:18:24;8.90;99.90
8850;DHT22;5638;50.860;4.698;2022-11-20T13:20:50;8.90;99.90
8850;DHT22;5638;50.860;4.698;2022-11-20T13:23:27;8.90;99.90
8850;DHT22;5638;50.860;4.698;2022-11-20T13:26:05;8.90;99.90
8850;DHT22;5638;50.860;4.698;2022-11-20T13:28:32;8.90;99.90
8850;DHT22;5638;50.860;4.698;2022-11-20T13:30:58;9.00;99.90
8850;DHT22;5638;50.860;4.698;2022-11-20T13:33:35;9.00;99.90
8850;DHT22;5638;50.860;4.698;2022-11-20T13:36:07;9.00;99.90
8850;DHT22;5638;50.860;4.698;2022-11-20T13:38:52;8.90;99.90
8850;DHT22;5638;50.860;4.698;2022-11-20T13:41:31;8.90;99.90
8850;DHT22;5638;50.860;4.698;2022-11-20T13:44:22;8.80;99.90
8850;DHT22;5638;50.860;4.698;2022-11-20T13:46:52;8.90;99.90
8850;DHT22;5638;50.860;4.698;2022-11-20T13:49:38;8.90;99.90
8850;DHT22;5638;50.860;4.698;2022-11-20T13:52:38;8.90;99.90
8850;DHT22;5638;50.860;4.698;2022-11-20T13:55:38;8.80;99.90
8850;DHT22;5638;50.860;4.698;2022-11-20T14:01:30;8.90;99.90
8850;DHT22;5638;50.860;4.698;2022-11-20T14:03:57;8.90;99.90
8850;DHT22;5638;50.860;4.698;2022-11-20T14:06:29;8.90;99.90
8850;DHT22;5638;50.860;4.698;2022-11-20T14:08:59;8.90;99.90
8850;DHT22;5638;50.860;4.698;2022-11-20T14:11:30;9.00;99.90
8850;DHT22;5638;50.860;4.698;2022-11-20T14:14:01;9.00;99.90
8850;DHT22;5638;50.860;4.698;2022-11-20T14:16:30;9.10;99.90
8850;DHT22;5638;50.860;4.698;2022-11-20T14:21:53;9.10;99.90
8850;DHT22;5638;50.860;4.698;2022-11-20T14:24:31;9.10;99.90
8850;DHT22;5638;50.860;4.698;2022-11-20T14:26:57;9.20;99.90
8850;DHT22;5638;50.860;4.698;2022-11-20T14:29:35;9.20;99.90
8850;DHT22;5638;50.860;4.698;2022-11-20T14:32:03;9.20;99.90
8850;DHT22;5638;50.860;4.698;2022-11-20T14:34:38;9.20;99.90
8850;DHT22;5638;50.860;4.698;2022-11-20T14:37:12;9.20;99.90
8850;DHT22;5638;50.860;4.698;2022-11-20T14:39:50;9.30;99.90
8850;DHT22;5638;50.860;4.698;2022-11-20T14:42:26;9.30;99.90
8850;DHT22;5638;50.860;4.698;2022-11-20T14:44:56;9.20;99.90
8850;DHT22;5638;50.860;4.698;2022-11-20T14:47:25;9.10;99.90
8850;DHT22;5638;50.860;4.698;2022-11-20T14:49:55;9.20;99.90
8850;DHT22;5638;50.860;4.698;2022-11-20T14:52:25;9.20;99.90
8850;DHT22;5638;50.860;4.698;2022-11-20T14:54:54;9.20;99.90
8850;DHT22;5638;50.860;4.698;2022-11-20T15:02:33;9.30;99.90
8850;DHT22;5638;50.860;4.698;2022-11-20T15:05:01;9.30;99.90
8850;DHT22;5638;50.860;4.698;2022-11-20T15:07:33;9.40;99.90
8850;DHT22;5638;50.860;4.698;2022-11-20T15:12:30;9.50;99.90
8850;DHT22;5638;50.860;4.698;2022-11-20T15:14:58;9.40;99.90
8850;DHT22;5638;50.860;4.698;2022-11-20T15:17:24;9.50;99.90
8850;DHT22;5638;50.860;4.698;2022-11-20T15:19:51;9.50;99.90
8850;DHT22;5638;50.860;4.698;2022-11-20T15:22:18;9.50;99.90
8850;DHT22;5638;50.860;4.698;2022-11-20T15:24:44;9.50;99.90
8850;DHT22;5638;50.860;4.698;2022-11-20T15:27:11;9.60;99.90
8850;DHT22;5638;50.860;4.698;2022-11-20T15:29:37;9.60;99.90
8850;DHT22;5638;50.860;4.698;2022-11-20T15:32:03;9.70;99.90
8850;DHT22;5638;50.860;4.698;2022-11-20T15:34:29;9.80;99.90
8850;DHT22;5638;50.860;4.698;2022-11-20T15:36:55;9.80;99.90
8850;DHT22;5638;50.860;4.698;2022-11-20T15:39:21;9.90;99.90
8850;DHT22;5638;50.860;4.698;2022-11-20T15:41:47;9.90;99.90
8850;DHT22;5638;50.860;4.698;2022-11-20T15:44:12;9.90;99.90
8850;DHT22;5638;50.860;4.698;2022-11-20T15:46:41;10.00;99.90
8850;DHT22;5638;50.860;4.698;2022-11-20T15:49:14;10.00;99.90
8850;DHT22;5638;50.860;4.698;2022-11-20T15:51:43;10.10;99.90
8850;DHT22;5638;50.860;4.698;2022-11-20T15:54:17;10.00;99.90
8850;DHT22;5638;50.860;4.698;2022-11-20T15:56:48;10.00;99.90
8850;DHT22;5638;50.860;4.698;2022-11-20T15:59:17;10.10;99.90
8850;DHT22;5638;50.860;4.698;2022-11-20T16:01:43;10.10;99.90
8850;DHT22;5638;50.860;4.698;2022-11-20T16:04:11;10.10;99.90
8850;DHT22;5638;50.860;4.698;2022-11-20T16:06:39;10.10;99.90
8850;DHT22;5638;50.860;4.698;2022-11-20T16:09:05;10.10;99.90
8850;DHT22;5638;50.860;4.698;2022-11-20T16:11:31;10.20;99.90
8850;DHT22;5638;50.860;4.698;2022-11-20T16:13:57;10.20;99.90
8850;DHT22;5638;50.860;4.698;2022-11-20T16:16:41;10.30;99.90
8850;DHT22;5638;50.860;4.698;2022-11-20T16:19:12;10.30;99.90
8850;DHT22;5638;50.860;4.698;2022-11-20T16:21:39;10.20;99.90
8850;DHT22;5638;50.860;4.698;2022-11-20T16:24:10;10.20;99.90
8850;DHT22;5638;50.860;4.698;2022-11-20T16:26:39;10.20;99.90
8850;DHT22;5638;50.860;4.698;2022-11-20T16:29:06;10.30;99.90
8850;DHT22;5638;50.860;4.698;2022-11-20T16:31:33;10.20;99.90
8850;DHT22;5638;50.860;4.698;2022-11-20T16:34:05;10.20;99.90
8850;DHT22;5638;50.860;4.698;2022-11-20T16:36:32;10.30;99.90
8850;DHT22;5638;50.860;4.698;2022-11-20T16:39:01;10.30;99.90
8850;DHT22;5638;50.860;4.698;2022-11-20T16:41:30;10.30;99.90
8850;DHT22;5638;50.860;4.698;2022-11-20T16:43:59;10.30;99.90
8850;DHT22;5638;50.860;4.698;2022-11-20T16:46:29;10.30;99.90
8850;DHT22;5638;50.860;4.698;2022-11-20T16:51:29;10.30;99.90
8850;DHT22;5638;50.860;4.698;2022-11-20T16:53:57;10.40;99.90
8850;DHT22;5638;50.860;4.698;2022-11-20T16:56:27;10.40;99.90
8850;DHT22;5638;50.860;4.698;2022-11-20T16:58:54;10.40;99.90
8850;DHT22;5638;50.860;4.698;2022-11-20T17:01:24;10.40;99.90
8850;DHT22;5638;50.860;4.698;2022-11-20T17:03:56;10.40;99.90
8850;DHT22;5638;50.860;4.698;2022-11-20T17:06:26;10.40;99.90
8850;DHT22;5638;50.860;4.698;2022-11-20T17:08:54;10.40;99.90
8850;DHT22;5638;50.860;4.698;2022-11-20T17:11:21;10.50;99.90
8850;DHT22;5638;50.860;4.698;2022-11-20T17:13:47;10.50;99.90
8850;DHT22;5638;50.860;4.698;2022-11-20T17:16:16;10.50;99.90
8850;DHT22;5638;50.860;4.698;2022-11-20T17:18:44;10.60;99.90
8850;DHT22;5638;50.860;4.698;2022-11-20T17:21:11;10.50;99.90
8850;DHT22;5638;50.860;4.698;2022-11-20T17:23:40;10.50;99.90
8850;DHT22;5638;50.860;4.698;2022-11-20T17:26:12;10.50;99.90
8850;DHT22;5638;50.860;4.698;2022-11-20T17:28:43;10.50;99.90
8850;DHT22;5638;50.860;4.698;2022-11-20T17:31:11;10.40;99.90
8850;DHT22;5638;50.860;4.698;2022-11-20T17:33:41;10.50;99.90
8850;DHT22;5638;50.860;4.698;2022-11-20T17:36:10;10.50;99.90
8850;DHT22;5638;50.860;4.698;2022-11-20T17:38:38;10.50;99.90
8850;DHT22;5638;50.860;4.698;2022-11-20T17:41:12;10.50;99.90
8850;DHT22;5638;50.860;4.698;2022-11-20T17:43:40;10.40;99.90
8850;DHT22;5638;50.860;4.698;2022-11-20T17:46:09;10.40;99.90
8850;DHT22;5638;50.860;4.698;2022-11-20T17:48:47;10.50;99.90
8850;DHT22;5638;50.860;4.698;2022-11-20T17:51:17;10.40;99.90
8850;DHT22;5638;50.860;4.698;2022-11-20T17:53:46;10.20;99.90
8850;DHT22;5638;50.860;4.698;2022-11-20T17:56:15;10.20;99.90
8850;DHT22;5638;50.860;4.698;2022-11-20T17:59:04;10.10;99.90
8850;DHT22;5638;50.860;4.698;2022-11-20T18:01:31;10.00;99.90
8850;DHT22;5638;50.860;4.698;2022-11-20T18:03:57;10.10;99.90
8850;DHT22;5638;50.860;4.698;2022-11-20T18:06:27;10.10;99.90
8850;DHT22;5638;50.860;4.698;2022-11-20T18:08:54;10.20;99.90
8850;DHT22;5638;50.860;4.698;2022-11-20T18:11:27;10.30;99.90
8850;DHT22;5638;50.860;4.698;2022-11-20T18:13:57;10.20;99.90
8850;DHT22;5638;50.860;4.698;2022-11-20T18:16:47;10.30;99.90
8850;DHT22;5638;50.860;4.698;2022-11-20T18:19:18;10.40;99.90
8850;DHT22;5638;50.860;4.698;2022-11-20T18:21:46;10.40;99.90
8850;DHT22;5638;50.860;4.698;2022-11-20T18:24:12;10.40;99.90
8850;DHT22;5638;50.860;4.698;2022-11-20T18:26:39;10.30;99.90
8850;DHT22;5638;50.860;4.698;2022-11-20T18:29:04;10.20;99.90
8850;DHT22;5638;50.860;4.698;2022-11-20T18:31:30;10.20;99.90
8850;DHT22;5638;50.860;4.698;2022-11-20T18:33:56;10.10;99.90
8850;DHT22;5638;50.860;4.698;2022-11-20T18:36:24;9.90;99.90